createdAt,value
2022-08-21T00:02:02.809Z,95020.91
2022-08-21T00:04:57.725Z,95020.09
2022-08-21T00:07:43.737Z,95013.81
2022-08-21T00:10:29.654Z,94992.84
2022-08-21T00:13:16.919Z,94993.94
2022-08-21T00:16:05.558Z,95010.03
2022-08-21T00:18:51.340Z,95003.16
2022-08-21T00:21:37.652Z,94999.34
2022-08-21T00:24:24.902Z,94995.81
2022-08-21T00:27:10.994Z,94999.34
2022-08-21T00:29:57.061Z,94989.22
2022-08-21T00:32:43.558Z,94971.00
2022-08-21T00:35:34.167Z,94988.41
2022-08-21T00:38:20.121Z,94986.78
2022-08-21T00:41:29.865Z,94979.72
2022-08-21T00:44:15.536Z,94983.78
2022-08-21T00:47:01.547Z,94967.75
2022-08-21T00:49:47.340Z,94962.81
2022-08-21T00:52:35.200Z,94972.06
2022-08-21T00:55:23.473Z,94970.75
2022-08-21T00:58:11.330Z,94970.78
2022-08-21T01:00:57.466Z,94973.50
2022-08-21T01:03:44.124Z,94971.00
2022-08-21T01:06:31.646Z,94966.91
2022-08-21T01:09:17.617Z,94973.19
2022-08-21T01:12:04.530Z,94981.91
2022-08-21T01:14:50.529Z,94966.97
2022-08-21T01:17:36.871Z,94984.66
2022-08-21T01:20:32.183Z,94979.44
2022-08-21T01:23:18.516Z,94972.66
2022-08-21T01:26:04.849Z,94977.81
2022-08-21T01:28:57.840Z,94985.72
2022-08-21T01:31:44.294Z,94974.00
2022-08-21T01:34:30.274Z,94967.72
2022-08-21T01:37:17.893Z,94970.16
2022-08-21T01:40:05.776Z,94977.28
2022-08-21T01:42:52.193Z,94972.06
2022-08-21T01:45:38.453Z,94971.00
2022-08-21T01:48:24.621Z,94968.28
2022-08-21T01:51:10.954Z,94962.28
2022-08-21T01:53:56.732Z,94965.28
2022-08-21T01:56:48.085Z,94953.31
2022-08-21T01:59:35.585Z,94979.19
2022-08-21T02:02:21.826Z,94975.63
2022-08-21T02:05:09.345Z,94965.53
2022-08-21T02:07:56.506Z,94963.41
2022-08-21T02:10:42.377Z,94974.25
2022-08-21T02:13:34.876Z,94974.81
2022-08-21T02:16:20.922Z,94950.28
2022-08-21T02:19:08.300Z,94969.34
2022-08-21T02:21:54.210Z,94963.09
2022-08-21T02:24:54.801Z,94962.81
2022-08-21T02:27:43.627Z,94971.56
2022-08-21T02:30:35.116Z,94952.25
2022-08-21T02:33:21.243Z,94959.84
2022-08-21T02:36:08.845Z,94968.00
2022-08-21T02:38:55.129Z,94954.13
2022-08-21T02:41:41.262Z,94971.00
2022-08-21T02:44:34.262Z,94959.56
2022-08-21T02:47:21.017Z,94959.31
2022-08-21T02:50:08.661Z,94956.84
2022-08-21T02:52:55.459Z,94959.56
2022-08-21T02:55:41.771Z,94961.19
2022-08-21T02:58:34.204Z,94965.84
2022-08-21T03:01:21.442Z,94970.19
2022-08-21T03:04:07.258Z,94953.28
2022-08-21T03:06:53.310Z,94957.66
2022-08-21T03:09:39.450Z,94956.56
2022-08-21T03:12:37.284Z,94965.31
2022-08-21T03:15:24.839Z,94949.81
2022-08-21T03:18:11.823Z,94944.06
2022-08-21T03:20:58.096Z,94959.03
2022-08-21T03:23:43.998Z,94963.41
2022-08-21T03:26:30.492Z,94963.41
2022-08-21T03:29:17.358Z,94962.28
2022-08-21T03:32:03.386Z,94959.56
2022-08-21T03:34:49.725Z,94959.31
2022-08-21T03:37:35.732Z,94965.56
2022-08-21T03:40:23.529Z,94966.97
2022-08-21T03:43:10.581Z,94954.44
2022-08-21T03:45:56.985Z,94944.91
2022-08-21T03:48:42.749Z,94960.13
2022-08-21T03:51:28.732Z,94957.94
2022-08-21T03:54:14.764Z,94963.66
2022-08-21T03:57:01.041Z,94975.66
2022-08-21T03:59:47.879Z,94962.03
2022-08-21T04:02:34.397Z,94964.75
2022-08-21T04:05:31.133Z,94945.41
2022-08-21T04:08:21.092Z,94948.72
2022-08-21T04:11:07.394Z,94955.47
2022-08-21T04:13:53.592Z,94956.06
2022-08-21T04:16:39.507Z,94957.97
2022-08-21T04:19:25.385Z,94959.31
2022-08-21T04:22:11.597Z,94953.06
2022-08-21T04:24:57.641Z,94956.06
2022-08-21T04:27:43.681Z,94949.53
2022-08-21T04:30:32.667Z,94959.88
2022-08-21T04:33:18.750Z,94963.69
2022-08-21T04:36:05.942Z,94968.59
2022-08-21T04:38:51.854Z,94959.31
2022-08-21T04:41:38.699Z,94962.88
2022-08-21T04:44:24.835Z,94963.69
2022-08-21T04:47:10.822Z,94947.63
2022-08-21T04:49:56.629Z,94957.97
2022-08-21T04:52:42.706Z,94960.94
2022-08-21T04:55:29.493Z,94966.69
2022-08-21T04:58:18.445Z,94965.88
2022-08-21T05:01:05.939Z,94973.25
2022-08-21T05:03:54.697Z,94971.84
2022-08-21T05:06:43.055Z,94984.94
2022-08-21T05:09:29.434Z,94988.78
2022-08-21T05:12:15.596Z,94984.16
2022-08-21T05:15:01.865Z,94981.41
2022-08-21T05:17:55.451Z,94990.69
2022-08-21T05:20:47.292Z,94984.16
2022-08-21T05:23:33.744Z,94977.63
2022-08-21T05:26:19.660Z,94983.03
2022-08-21T05:29:11.802Z,94998.59
2022-08-21T05:31:59.242Z,94985.50
2022-08-21T05:34:45.126Z,94980.88
2022-08-21T05:37:30.962Z,94974.59
2022-08-21T05:40:22.308Z,94988.22
2022-08-21T05:43:09.292Z,94995.09
2022-08-21T05:45:55.000Z,95000.72
2022-08-21T06:10:12.073Z,94989.38
2022-08-21T06:12:58.093Z,95011.00
2022-08-21T06:15:44.741Z,94996.91
2022-08-21T06:18:30.714Z,95006.19
2022-08-21T06:21:17.140Z,95008.09
2022-08-21T06:24:03.228Z,94998.03
2022-08-21T06:26:49.346Z,95007.25
2022-08-21T06:29:44.380Z,94996.34
2022-08-21T06:32:30.785Z,94993.06
2022-08-21T06:35:16.593Z,95002.53
2022-08-21T06:38:03.356Z,94996.22
2022-08-21T06:40:49.520Z,95001.16
2022-08-21T06:43:39.895Z,94990.75
2022-08-21T06:46:27.929Z,94995.38
2022-08-21T06:49:17.510Z,95004.09
2022-08-21T06:52:12.241Z,95010.91
2022-08-21T06:54:58.492Z,95012.78
2022-08-21T06:57:47.909Z,95011.94
2022-08-21T07:00:43.967Z,95011.09
2022-08-21T07:03:41.223Z,95014.38
2022-08-21T07:06:27.049Z,95001.53
2022-08-21T07:09:13.646Z,94997.72
2022-08-21T07:11:59.764Z,95009.16
2022-08-21T07:14:45.953Z,95003.41
2022-08-21T07:17:31.793Z,94990.03
2022-08-21T07:20:17.916Z,95004.78
2022-08-21T07:23:09.726Z,95000.38
2022-08-21T07:25:55.941Z,95002.53
2022-08-21T07:28:42.582Z,94997.31
2022-08-21T07:31:29.033Z,95005.19
2022-08-21T07:34:15.638Z,94990.72
2022-08-21T07:37:09.855Z,95011.13
2022-08-21T07:39:56.093Z,94999.38
2022-08-21T07:42:43.785Z,95001.22
2022-08-21T07:45:30.549Z,94993.03
2022-08-21T07:48:17.223Z,95001.97
2022-08-21T07:51:07.597Z,95004.69
2022-08-21T07:53:55.258Z,95005.47
2022-08-21T07:56:41.431Z,94998.91
2022-08-21T07:59:27.366Z,94995.91
2022-08-21T08:02:34.480Z,94991.81
2022-08-21T08:05:26.045Z,94988.47
2022-08-21T08:08:12.153Z,94991.19
2022-08-21T08:10:59.324Z,94992.25
2022-08-21T08:13:47.961Z,94980.19
2022-08-21T08:16:34.177Z,94983.44
2022-08-21T08:19:20.169Z,94983.44
2022-08-21T08:22:26.342Z,94980.72
2022-08-21T08:25:14.617Z,94980.06
2022-08-21T08:28:00.786Z,94961.31
2022-08-21T08:30:47.494Z,94991.47
2022-08-21T08:33:33.303Z,94975.34
2022-08-21T08:36:20.098Z,94980.50
2022-08-21T08:39:06.408Z,94952.94
2022-08-21T08:42:32.043Z,94977.75
2022-08-21T08:45:25.328Z,94953.72
2022-08-21T08:48:14.744Z,94962.16
2022-08-21T08:51:02.157Z,94966.41
2022-08-21T08:53:55.940Z,94964.47
2022-08-21T08:56:41.761Z,94967.19
2022-08-21T08:59:31.530Z,94967.28
2022-08-21T09:02:18.347Z,94965.88
2022-08-21T10:04:24.400Z,94919.63
2022-08-21T10:07:12.300Z,94914.25
2022-08-21T10:10:15.068Z,94902.47
2022-08-21T10:13:10.177Z,94906.56
2022-08-21T10:16:17.342Z,94886.75
2022-08-21T10:19:40.771Z,94897.69
2022-08-21T10:22:51.895Z,94895.19
2022-08-21T10:26:14.298Z,94885.59
2022-08-21T10:29:39.262Z,94877.25
2022-08-21T10:32:29.047Z,94856.81
2022-08-21T10:35:38.285Z,94866.56
2022-08-21T10:39:23.413Z,94871.59
2022-08-21T10:42:07.737Z,94859.47
2022-08-21T10:45:14.481Z,94854.34
2022-08-21T10:48:09.834Z,94858.72
2022-08-21T10:54:25.042Z,94853.81
2022-08-21T10:57:32.276Z,94844.66
2022-08-21T11:00:23.976Z,94838.00
2022-08-21T11:03:10.089Z,94830.16
2022-08-21T11:06:00.890Z,94831.34
2022-08-21T11:08:52.305Z,94823.97
2022-08-21T11:11:59.138Z,94825.19
2022-08-21T11:15:28.689Z,94815.72
2022-08-21T11:18:21.549Z,94818.47
2022-08-21T11:21:40.654Z,94820.81
2022-08-21T11:24:29.461Z,94830.81
2022-08-21T11:27:26.300Z,94822.09
2022-08-21T11:30:13.481Z,94820.47
2022-08-21T11:33:24.267Z,94819.16
2022-08-21T11:36:19.781Z,94812.94
2022-08-21T11:39:05.648Z,94802.66
2022-08-21T11:42:07.038Z,94790.16
2022-08-21T11:45:28.168Z,94794.22
2022-08-21T11:48:33.597Z,94790.25
2022-08-21T11:51:29.922Z,94777.53
2022-08-21T11:54:35.196Z,94772.31
2022-08-21T11:57:30.051Z,94772.22
2022-08-21T12:00:30.844Z,94764.34
2022-08-21T12:03:34.825Z,94769.03
2022-08-21T12:06:31.818Z,94755.84
2022-08-21T12:09:26.941Z,94753.47
2022-08-21T12:12:45.438Z,94759.56
2022-08-21T12:15:31.392Z,94760.91
2022-08-21T12:18:44.187Z,94751.19
2022-08-21T12:21:29.952Z,94740.34
2022-08-21T12:24:15.907Z,94734.75
2022-08-21T12:27:31.236Z,94746.22
2022-08-21T12:30:35.538Z,94750.31
2022-08-21T12:33:38.753Z,94744.69
2022-08-21T12:36:29.406Z,94741.19
2022-08-21T12:39:22.232Z,94731.00
2022-08-21T12:42:20.424Z,94739.59
2022-08-21T12:45:19.129Z,94725.34
2022-08-21T12:48:14.623Z,94725.94
2022-08-21T12:51:49.845Z,94731.44
2022-08-21T12:54:42.648Z,94731.09
2022-08-21T12:57:31.003Z,94739.53
2022-08-21T13:00:23.227Z,94743.38
2022-08-21T13:03:09.893Z,94745.06
2022-08-21T13:05:56.075Z,94742.31
2022-08-21T13:08:47.246Z,94738.25
2022-08-21T13:11:34.240Z,94733.38
2022-08-21T13:14:45.216Z,94737.25
2022-08-21T13:17:35.743Z,94751.25
2022-08-21T13:20:29.051Z,94731.03
2022-08-21T13:23:27.705Z,94749.72
2022-08-21T13:26:21.977Z,94751.31
2022-08-21T13:29:13.476Z,94756.84
2022-08-21T13:32:03.619Z,94756.69
2022-08-21T13:34:51.421Z,94760.28
2022-08-21T13:37:42.577Z,94751.91
2022-08-21T13:40:41.130Z,94753.25
2022-08-21T13:43:31.611Z,94764.09
2022-08-21T13:46:19.772Z,94757.50
2022-08-21T13:49:07.568Z,94769.59
2022-08-21T13:51:54.034Z,94751.09
2022-08-21T13:54:45.975Z,94748.63
2022-08-21T13:57:34.761Z,94747.13
2022-08-21T14:00:28.081Z,94763.97
2022-08-21T14:03:30.233Z,94755.78
2022-08-21T14:06:23.090Z,94751.50
2022-08-21T14:09:32.156Z,94774.16
2022-08-21T14:12:25.846Z,94776.22
2022-08-21T14:15:16.208Z,94788.00
2022-08-21T14:18:17.673Z,94811.47
2022-08-21T14:21:08.249Z,94832.44
2022-08-21T14:24:04.689Z,94833.47
2022-08-21T14:26:57.338Z,94841.22
2022-08-21T14:29:44.988Z,94836.88
2022-08-21T14:32:39.158Z,94858.41
2022-08-21T14:35:32.493Z,94867.66
2022-08-21T14:38:21.229Z,94869.78
2022-08-21T14:41:17.788Z,94856.97
2022-08-21T14:44:09.364Z,94843.75
2022-08-21T14:46:57.223Z,94824.66
2022-08-21T14:49:43.819Z,94840.84
2022-08-21T14:52:29.904Z,94862.03
2022-08-21T14:55:17.068Z,94861.53
2022-08-21T14:58:03.402Z,94860.19
2022-08-21T15:00:54.214Z,94851.59
2022-08-21T15:03:40.806Z,94833.69
2022-08-21T15:06:27.039Z,94843.66
2022-08-21T15:09:13.495Z,94839.84
2022-08-21T15:12:01.673Z,94835.53
2022-08-21T15:14:48.478Z,94838.53
2022-08-21T15:17:35.362Z,94859.44
2022-08-21T15:20:21.987Z,94863.75
2022-08-21T15:23:13.070Z,94857.53
2022-08-21T15:26:01.114Z,94896.28
2022-08-21T15:28:48.500Z,94903.34
2022-08-21T15:31:36.156Z,94903.78
2022-08-21T15:34:27.100Z,94905.41
2022-08-21T15:37:13.721Z,94895.06
2022-08-21T15:40:00.462Z,94881.72
2022-08-21T15:42:47.867Z,94881.94
2022-08-21T15:45:35.304Z,94878.16
2022-08-21T15:48:22.809Z,94860.78
2022-08-21T15:51:12.585Z,94861.88
2022-08-21T15:54:00.055Z,94862.34
2022-08-21T15:56:50.984Z,94861.50
2022-08-21T15:59:49.478Z,94857.53
2022-08-21T16:02:36.292Z,94833.75
2022-08-21T16:05:23.542Z,94840.00
2022-08-21T16:08:11.818Z,94845.97
2022-08-21T16:10:58.106Z,94833.41
2022-08-21T16:13:45.840Z,94834.22
2022-08-21T16:16:34.913Z,94832.09
2022-08-21T16:19:21.981Z,94832.09
2022-08-21T16:22:08.051Z,94843.28
2022-08-21T16:24:54.295Z,94852.28
2022-08-21T16:27:41.377Z,94836.25
2022-08-21T16:30:31.073Z,94841.16
2022-08-21T16:33:25.903Z,94836.31
2022-08-21T16:36:13.184Z,94843.88
2022-08-21T16:39:01.128Z,94832.63
2022-08-21T16:41:49.646Z,94842.59
2022-08-21T16:44:35.569Z,94843.41
2022-08-21T16:47:27.076Z,94846.22
2022-08-21T16:50:16.575Z,94838.47
2022-08-21T16:53:02.585Z,94837.84
2022-08-21T16:55:48.655Z,94833.81
2022-08-21T16:58:37.769Z,94844.75
2022-08-21T18:02:20.155Z,94951.09
2022-08-21T18:05:08.993Z,94963.66
2022-08-21T18:07:55.692Z,94953.63
2022-08-21T18:10:45.011Z,94947.94
2022-08-21T18:13:33.538Z,94966.41
2022-08-21T18:16:20.201Z,94964.13
2022-08-21T18:19:10.263Z,94973.38
2022-08-21T18:21:58.814Z,94964.06
2022-08-21T18:24:47.812Z,94973.81
2022-08-21T18:27:34.080Z,94979.78
2022-08-21T18:30:23.088Z,94974.88
2022-08-21T18:33:09.653Z,94963.34
2022-08-21T18:35:55.978Z,94959.53
2022-08-21T18:38:43.881Z,94952.69
2022-08-21T18:41:29.852Z,94960.03
2022-08-21T18:44:48.822Z,94970.13
2022-08-21T18:47:42.279Z,94974.97
2022-08-21T18:50:29.264Z,94964.31
2022-08-21T18:53:24.179Z,94967.59
2022-08-21T18:56:15.601Z,94951.47
2022-08-21T18:59:04.271Z,94956.63
2022-08-21T19:01:50.442Z,94966.41
2022-08-21T19:04:44.212Z,94945.69
2022-08-21T19:07:31.109Z,94961.44
2022-08-21T19:10:24.668Z,94965.00
2022-08-21T19:13:17.210Z,94965.53
2022-08-21T19:16:03.846Z,94956.28
2022-08-21T19:18:49.911Z,94951.94
2022-08-21T19:21:36.815Z,94953.81
2022-08-21T19:24:23.438Z,94947.25
2022-08-21T19:27:10.998Z,94936.31
2022-08-21T19:29:57.235Z,94932.56
2022-08-21T19:32:45.365Z,94938.47
2022-08-21T19:35:31.453Z,94956.75
2022-08-21T19:38:17.472Z,94945.31
2022-08-21T19:41:04.399Z,94937.97
2022-08-21T19:43:54.030Z,94939.38
2022-08-21T19:46:41.387Z,94953.81
2022-08-21T19:49:32.069Z,94949.44
2022-08-21T19:52:19.630Z,94953.25
2022-08-21T19:55:08.753Z,94962.28
2022-08-21T19:57:56.177Z,94948.69
2022-08-21T20:00:44.162Z,94965.00
2022-08-21T20:03:30.117Z,94970.75
2022-08-21T20:06:18.118Z,94974.59
2022-08-21T20:09:08.422Z,94959.88
2022-08-21T20:11:57.661Z,94957.47
2022-08-21T20:14:46.014Z,94942.50
2022-08-21T20:17:31.883Z,94969.69
2022-08-21T20:20:18.657Z,94968.59
2022-08-21T20:23:10.644Z,94963.16
2022-08-21T20:25:57.277Z,94975.16
2022-08-21T20:28:43.597Z,94973.00
2022-08-21T20:31:30.129Z,94982.00
2022-08-21T20:34:16.152Z,94984.19
2022-08-21T20:37:02.509Z,94987.72
2022-08-21T20:39:51.405Z,94985.81
2022-08-21T20:42:38.993Z,94968.94
2022-08-21T20:45:31.037Z,94988.81
2022-08-21T20:48:23.678Z,94988.78
2022-08-21T20:51:21.352Z,94989.13
2022-08-21T20:54:33.471Z,94982.81
2022-08-21T20:57:30.640Z,94976.88
2022-08-21T21:00:19.045Z,94988.31
2022-08-21T21:03:10.669Z,94998.69
2022-08-21T21:06:03.948Z,94984.81
2022-08-21T21:09:11.893Z,94997.06
2022-08-21T21:12:00.615Z,95000.66
2022-08-21T21:14:52.572Z,95006.41
2022-08-21T21:17:45.123Z,95001.50
2022-08-21T21:20:46.166Z,95005.84
2022-08-21T21:23:32.020Z,95003.97
2022-08-21T21:26:29.328Z,95009.72
2022-08-21T21:29:18.599Z,95005.06
2022-08-21T21:32:05.988Z,95008.34
2022-08-21T21:34:52.097Z,94984.94
2022-08-21T21:38:03.577Z,94990.13
2022-08-21T21:41:15.875Z,94997.50
2022-08-21T21:44:13.923Z,94996.66
2022-08-21T21:47:34.214Z,94998.59
2022-08-21T21:50:42.799Z,94999.13
2022-08-21T21:53:51.481Z,95003.25
2022-08-21T21:56:57.252Z,94987.19
2022-08-21T21:59:46.472Z,95005.72
2022-08-21T22:06:37.756Z,95002.50
2022-08-21T22:09:42.364Z,95002.72
2022-08-21T22:12:56.681Z,94981.81
2022-08-21T22:15:56.641Z,94994.88
2022-08-21T22:19:07.450Z,95003.91
2022-08-21T22:22:12.699Z,94992.69
2022-08-21T22:25:04.569Z,94999.81
2022-08-21T22:28:01.035Z,94997.88
2022-08-21T22:30:54.813Z,94997.34
2022-08-21T22:33:41.310Z,94986.44
2022-08-21T22:36:31.929Z,94986.16
2022-08-21T22:39:27.364Z,94957.88
2022-08-21T22:42:25.402Z,94970.66
2022-08-21T22:45:12.339Z,94973.94
2022-08-21T22:48:05.460Z,94976.38
2022-08-21T22:51:10.678Z,94962.50
2022-08-21T22:53:56.993Z,94972.59
2022-08-21T22:56:45.381Z,94964.69
2022-08-21T22:59:40.078Z,94968.75
2022-08-21T23:02:52.218Z,94968.50
2022-08-21T23:05:38.541Z,94961.69
2022-08-21T23:08:34.575Z,94947.53
2022-08-21T23:11:39.836Z,94955.16
2022-08-21T23:14:26.611Z,94955.94
2022-08-21T23:17:49.665Z,94947.81
2022-08-21T23:20:42.732Z,94954.91
2022-08-21T23:23:31.492Z,94956.53
2022-08-21T23:26:26.970Z,94936.38
2022-08-21T23:30:02.051Z,94940.22
2022-08-21T23:33:04.292Z,94943.44
2022-08-21T23:36:30.005Z,94934.75
2022-08-21T23:39:16.228Z,94936.16
2022-08-21T23:42:18.573Z,94908.13
2022-08-21T23:45:24.365Z,94929.06
2022-08-21T23:48:46.419Z,94936.16
2022-08-21T23:51:41.362Z,94926.88
2022-08-21T23:55:04.890Z,94921.97
2022-08-21T23:58:09.128Z,94922.25
